createdAt,value
2018-03-06T00:01:50.088Z,7.49
2018-03-06T00:04:18.190Z,7.27
2018-03-06T00:06:46.296Z,7.04
2018-03-06T00:09:14.400Z,6.96
2018-03-06T00:11:42.524Z,6.89
2018-03-06T00:14:10.641Z,6.80
2018-03-06T00:16:38.731Z,6.71
2018-03-06T00:19:06.859Z,6.61
2018-03-06T00:21:34.955Z,6.55
2018-03-06T00:24:03.070Z,6.34
2018-03-06T00:26:31.173Z,6.27
2018-03-06T00:28:59.265Z,6.15
2018-03-06T00:31:27.380Z,6.10
2018-03-06T00:33:55.546Z,6.03
2018-03-06T00:36:23.657Z,5.98
2018-03-06T00:38:51.750Z,5.92
2018-03-06T00:41:19.871Z,5.90
2018-03-06T00:43:47.974Z,5.87
2018-03-06T00:46:16.100Z,5.79
2018-03-06T00:48:44.206Z,5.64
2018-03-06T00:51:12.315Z,5.55
2018-03-06T00:53:40.427Z,5.55
2018-03-06T00:56:08.546Z,5.55
2018-03-06T00:58:36.632Z,5.56
2018-03-06T01:01:04.748Z,5.48
2018-03-06T01:03:32.849Z,5.53
2018-03-06T01:06:00.956Z,5.43
2018-03-06T01:08:29.060Z,5.38
2018-03-06T01:10:57.163Z,5.36
2018-03-06T01:13:25.278Z,5.26
2018-03-06T01:15:53.379Z,5.26
2018-03-06T01:18:21.487Z,5.29
2018-03-06T01:20:49.606Z,5.20
2018-03-06T01:23:17.721Z,5.12
2018-03-06T01:25:45.821Z,5.15
2018-03-06T01:28:13.919Z,5.11
2018-03-06T01:30:42.031Z,5.12
2018-03-06T01:33:10.142Z,5.03
2018-03-06T01:35:38.235Z,4.97
2018-03-06T01:38:06.344Z,5.03
2018-03-06T01:40:35.875Z,4.94
2018-03-06T01:43:03.996Z,4.93
2018-03-06T01:45:32.174Z,4.95
2018-03-06T01:48:00.342Z,4.88
2018-03-06T01:50:28.405Z,4.89
2018-03-06T01:52:56.509Z,4.82
2018-03-06T01:55:24.629Z,4.83
2018-03-06T01:57:52.739Z,4.85
2018-03-06T02:00:20.831Z,4.80
2018-03-06T02:02:48.936Z,4.74
2018-03-06T02:05:17.059Z,4.72
2018-03-06T02:07:45.163Z,4.78
2018-03-06T02:10:13.289Z,4.73
2018-03-06T02:12:41.404Z,4.68
2018-03-06T02:15:09.527Z,4.71
2018-03-06T02:17:37.617Z,4.61
2018-03-06T02:20:05.714Z,4.62
2018-03-06T02:22:33.823Z,4.63
2018-03-06T02:25:01.935Z,4.61
2018-03-06T02:27:30.053Z,4.61
2018-03-06T02:29:58.164Z,4.62
2018-03-06T02:32:26.270Z,4.68
2018-03-06T02:34:54.367Z,4.73
2018-03-06T02:37:22.496Z,4.76
2018-03-06T02:39:50.610Z,4.76
2018-03-06T02:42:18.712Z,4.76
2018-03-06T02:44:46.828Z,4.80
2018-03-06T02:47:14.948Z,4.81
2018-03-06T02:49:43.098Z,4.79
2018-03-06T02:52:11.209Z,4.80
2018-03-06T02:54:39.319Z,4.84
2018-03-06T02:57:07.428Z,4.83
2018-03-06T02:59:35.551Z,4.84
2018-03-06T03:02:03.658Z,4.92
2018-03-06T03:04:31.756Z,4.98
2018-03-06T03:06:59.851Z,4.98
2018-03-06T03:09:27.964Z,4.93
2018-03-06T03:11:56.066Z,5.00
2018-03-06T03:14:24.179Z,4.97
2018-03-06T03:16:52.298Z,4.97
2018-03-06T03:19:20.392Z,5.03
2018-03-06T03:21:48.725Z,5.04
2018-03-06T03:24:16.823Z,5.05
2018-03-06T03:26:44.945Z,5.09
2018-03-06T03:29:13.073Z,5.12
2018-03-06T03:31:41.181Z,5.10
2018-03-06T03:34:09.305Z,5.12
2018-03-06T03:36:37.437Z,5.16
2018-03-06T03:39:05.557Z,5.25
2018-03-06T03:41:33.652Z,5.28
2018-03-06T03:44:01.780Z,5.25
2018-03-06T03:46:29.895Z,5.31
2018-03-06T03:48:57.999Z,5.32
2018-03-06T03:51:26.820Z,5.39
2018-03-06T03:53:55.029Z,5.41
2018-03-06T03:56:23.140Z,5.42
2018-03-06T03:58:51.262Z,5.45
2018-03-06T04:01:19.380Z,5.50
2018-03-06T04:03:47.485Z,5.54
2018-03-06T04:06:15.620Z,5.56
2018-03-06T04:08:43.738Z,5.64
2018-03-06T04:11:11.840Z,5.75
2018-03-06T04:13:39.968Z,5.82
2018-03-06T04:16:08.060Z,5.77
2018-03-06T04:18:36.162Z,5.78
2018-03-06T04:21:04.270Z,5.80
2018-03-06T04:23:32.367Z,5.87
2018-03-06T04:26:00.466Z,5.91
2018-03-06T04:28:28.579Z,5.95
2018-03-06T04:30:56.697Z,5.92
2018-03-06T04:33:24.809Z,5.99
2018-03-06T04:35:52.937Z,5.96
2018-03-06T04:38:21.031Z,6.11
2018-03-06T04:40:49.149Z,6.11
2018-03-06T04:43:17.311Z,6.18
2018-03-06T04:45:45.410Z,6.27
2018-03-06T04:48:13.515Z,6.48
2018-03-06T04:50:41.635Z,6.65
2018-03-06T04:53:09.735Z,6.68
2018-03-06T04:55:37.856Z,6.74
2018-03-06T04:58:05.949Z,6.84
2018-03-06T05:00:34.055Z,6.88
2018-03-06T05:03:02.169Z,6.94
2018-03-06T05:05:30.281Z,7.07
2018-03-06T05:07:58.386Z,7.15
2018-03-06T05:10:26.497Z,7.17
2018-03-06T05:12:54.605Z,7.28
2018-03-06T05:15:22.747Z,7.29
2018-03-06T05:17:50.851Z,7.32
2018-03-06T05:20:19.005Z,7.38
2018-03-06T05:22:47.099Z,7.38
2018-03-06T05:25:15.217Z,7.40
2018-03-06T05:27:43.348Z,7.44
2018-03-06T05:30:11.457Z,7.44
2018-03-06T05:32:39.577Z,7.46
2018-03-06T05:35:07.703Z,7.52
2018-03-06T05:37:35.804Z,7.56
2018-03-06T05:40:03.938Z,7.58
2018-03-06T05:42:32.062Z,7.59
2018-03-06T05:45:00.180Z,7.58
2018-03-06T05:47:28.300Z,7.62
2018-03-06T05:49:56.424Z,7.88
2018-03-06T05:52:24.552Z,7.65
2018-03-06T05:54:52.643Z,7.62
2018-03-06T05:57:20.753Z,7.61
2018-03-06T05:59:52.639Z,7.65
2018-03-06T06:02:20.758Z,7.66
2018-03-06T06:04:48.861Z,7.63
2018-03-06T06:07:16.990Z,7.65
2018-03-06T06:09:45.116Z,7.69
2018-03-06T06:12:14.040Z,7.69
2018-03-06T06:14:42.142Z,7.73
2018-03-06T06:17:10.375Z,7.72
2018-03-06T06:19:38.731Z,7.73
2018-03-06T06:22:06.859Z,7.75
2018-03-06T06:24:35.018Z,7.79
2018-03-06T06:27:03.082Z,7.77
2018-03-06T06:29:32.162Z,7.77
2018-03-06T06:32:00.272Z,7.88
2018-03-06T06:34:28.380Z,7.94
2018-03-06T06:36:56.506Z,7.98
2018-03-06T06:39:28.314Z,7.80
2018-03-06T06:41:56.430Z,7.81
2018-03-06T06:44:24.550Z,7.79
2018-03-06T06:46:52.731Z,7.80
2018-03-06T06:49:20.775Z,7.79
2018-03-06T06:51:48.895Z,7.83
2018-03-06T06:54:17.004Z,7.83
2018-03-06T06:56:45.128Z,7.88
2018-03-06T06:59:13.249Z,7.91
2018-03-06T07:01:41.351Z,7.94
2018-03-06T07:04:09.450Z,7.96
2018-03-06T07:06:37.579Z,7.94
2018-03-06T07:09:05.849Z,7.95
2018-03-06T07:11:34.069Z,7.96
2018-03-06T07:14:02.196Z,7.97
2018-03-06T07:16:30.307Z,7.99
2018-03-06T07:18:58.709Z,8.00
2018-03-06T07:21:26.834Z,8.00
2018-03-06T07:23:54.965Z,8.13
2018-03-06T07:26:23.069Z,8.10
2018-03-06T07:28:51.188Z,8.10
2018-03-06T07:31:19.318Z,8.12
2018-03-06T07:33:47.427Z,8.16
2018-03-06T07:36:15.532Z,8.19
2018-03-06T07:38:43.628Z,8.21
2018-03-06T07:41:11.760Z,8.29
2018-03-06T07:43:39.890Z,8.34
2018-03-06T07:46:07.992Z,8.42
2018-03-06T07:48:36.124Z,8.46
2018-03-06T07:51:04.237Z,8.47
2018-03-06T07:53:32.351Z,8.54
2018-03-06T07:56:00.493Z,8.54
2018-03-06T07:58:28.603Z,8.62
2018-03-06T08:00:56.726Z,8.63
2018-03-06T08:03:24.895Z,8.71
2018-03-06T08:05:56.715Z,8.77
2018-03-06T08:08:24.821Z,8.73
2018-03-06T08:10:53.454Z,8.85
2018-03-06T08:13:21.595Z,8.85
2018-03-06T08:15:49.678Z,9.07
2018-03-06T08:18:17.817Z,9.04
2018-03-06T08:20:45.919Z,9.18
2018-03-06T08:23:14.047Z,9.31
2018-03-06T08:25:42.163Z,9.42
2018-03-06T08:28:10.269Z,9.44
2018-03-06T08:30:38.384Z,9.51
2018-03-06T08:33:06.498Z,9.57
2018-03-06T08:35:34.618Z,9.76
2018-03-06T08:38:02.751Z,10.11
2018-03-06T08:40:30.863Z,10.04
2018-03-06T08:42:58.993Z,10.36
2018-03-06T08:45:27.113Z,10.16
2018-03-06T08:47:55.232Z,10.50
2018-03-06T08:50:23.365Z,10.49
2018-03-06T08:52:51.497Z,10.77
2018-03-06T08:55:19.610Z,11.12
2018-03-06T08:57:47.740Z,11.30
2018-03-06T09:00:15.867Z,11.08
2018-03-06T09:02:43.993Z,10.83
2018-03-06T09:05:12.122Z,10.89
2018-03-06T09:07:40.231Z,10.90
2018-03-06T09:10:08.338Z,10.91
2018-03-06T09:12:36.477Z,11.12
2018-03-06T09:15:04.588Z,11.08
2018-03-06T09:17:32.724Z,11.11
2018-03-06T09:20:00.852Z,11.27
2018-03-06T09:22:28.963Z,11.27
2018-03-06T09:24:57.101Z,11.30
2018-03-06T09:27:25.349Z,11.24
2018-03-06T09:29:53.471Z,11.30
2018-03-06T09:32:21.606Z,11.27
2018-03-06T09:34:49.720Z,11.01
2018-03-06T09:37:17.843Z,11.23
2018-03-06T09:39:45.967Z,11.44
2018-03-06T09:42:14.106Z,11.44
2018-03-06T09:44:42.216Z,11.39
2018-03-06T09:47:10.335Z,11.52
2018-03-06T09:49:38.462Z,11.58
2018-03-06T09:52:06.565Z,11.39
2018-03-06T09:54:34.687Z,11.37
2018-03-06T09:57:02.808Z,11.46
2018-03-06T09:59:30.923Z,11.81
2018-03-06T10:01:59.055Z,12.16
2018-03-06T10:04:27.157Z,12.22
2018-03-06T10:06:55.280Z,12.59
2018-03-06T10:09:23.396Z,12.35
2018-03-06T10:11:51.524Z,12.09
2018-03-06T10:14:19.666Z,12.72
2018-03-06T10:16:47.781Z,12.75
2018-03-06T10:19:15.923Z,12.82
2018-03-06T10:21:44.023Z,13.30
2018-03-06T10:24:12.128Z,13.60
2018-03-06T10:26:40.251Z,13.60
2018-03-06T10:29:08.406Z,13.82
2018-03-06T10:31:36.510Z,13.76
2018-03-06T10:34:04.653Z,13.89
2018-03-06T10:36:32.795Z,13.92
2018-03-06T10:39:00.916Z,13.71
2018-03-06T10:41:29.028Z,13.62
2018-03-06T10:43:57.146Z,13.75
2018-03-06T10:46:25.265Z,13.80
2018-03-06T10:48:53.392Z,13.85
2018-03-06T10:51:21.506Z,14.21
2018-03-06T10:53:49.627Z,14.43
2018-03-06T10:56:17.761Z,14.34
2018-03-06T10:58:45.883Z,14.11
2018-03-06T11:01:19.547Z,13.74
2018-03-06T11:03:47.661Z,13.78
2018-03-06T11:06:15.776Z,14.09
2018-03-06T11:08:43.892Z,13.95
2018-03-06T11:11:12.015Z,13.50
2018-03-06T11:13:40.109Z,13.77
2018-03-06T11:16:08.258Z,13.94
2018-03-06T11:18:36.760Z,14.06
2018-03-06T11:21:04.889Z,13.78
2018-03-06T11:23:36.026Z,13.42
2018-03-06T11:26:04.165Z,13.39
2018-03-06T11:28:32.308Z,13.51
2018-03-06T11:31:00.430Z,13.44
2018-03-06T11:33:28.543Z,13.63
2018-03-06T11:36:00.328Z,13.51
2018-03-06T11:38:28.450Z,13.67
2018-03-06T11:40:56.559Z,13.46
2018-03-06T11:43:24.684Z,13.17
2018-03-06T11:45:52.810Z,13.42
2018-03-06T11:48:20.966Z,13.39
2018-03-06T11:50:49.063Z,13.28
2018-03-06T11:53:17.209Z,13.31
2018-03-06T11:55:45.346Z,13.55
2018-03-06T11:58:13.470Z,13.67
2018-03-06T12:00:41.604Z,13.47
2018-03-06T12:03:09.722Z,13.53
2018-03-06T12:05:37.836Z,13.81
2018-03-06T12:08:05.951Z,13.94
2018-03-06T12:10:34.073Z,13.60
2018-03-06T12:13:02.244Z,13.78
2018-03-06T12:15:30.366Z,13.59
2018-03-06T12:18:01.890Z,13.62
2018-03-06T12:20:30.015Z,13.75
2018-03-06T12:22:58.130Z,14.06
2018-03-06T12:25:26.269Z,13.94
2018-03-06T12:27:54.379Z,14.17
2018-03-06T12:30:22.493Z,14.65
2018-03-06T12:32:50.639Z,14.47
2018-03-06T12:35:18.781Z,14.28
2018-03-06T12:37:46.909Z,14.21
2018-03-06T12:40:15.047Z,14.43
2018-03-06T12:42:43.171Z,14.48
2018-03-06T12:45:11.296Z,14.41
2018-03-06T12:47:39.430Z,14.31
2018-03-06T12:50:07.531Z,14.29
2018-03-06T12:52:35.666Z,13.91
2018-03-06T12:55:03.775Z,13.95
2018-03-06T12:57:31.885Z,14.23
2018-03-06T13:00:00.016Z,14.22
2018-03-06T13:02:28.134Z,14.08
2018-03-06T13:04:56.259Z,14.07
2018-03-06T13:07:24.365Z,14.37
2018-03-06T13:09:52.473Z,14.59
2018-03-06T13:12:20.626Z,15.05
2018-03-06T13:14:48.730Z,14.89
2018-03-06T13:17:16.875Z,14.68
2018-03-06T13:19:45.001Z,14.83
2018-03-06T13:22:13.113Z,14.99
2018-03-06T13:24:41.242Z,15.14
2018-03-06T13:27:09.360Z,15.15
2018-03-06T13:29:37.471Z,14.87
2018-03-06T13:32:05.604Z,14.77
2018-03-06T13:34:33.713Z,14.73
2018-03-06T13:37:01.849Z,14.46
2018-03-06T13:39:29.983Z,14.48
2018-03-06T13:41:58.113Z,14.29
2018-03-06T13:44:26.233Z,14.24
2018-03-06T13:46:54.342Z,14.37
2018-03-06T13:49:22.497Z,14.39
2018-03-06T13:51:50.642Z,14.26
2018-03-06T13:54:18.786Z,14.25
2018-03-06T13:56:46.921Z,14.54
2018-03-06T13:59:15.063Z,14.61
2018-03-06T14:01:43.177Z,14.50
2018-03-06T14:04:14.437Z,14.27
2018-03-06T14:06:42.583Z,14.54
2018-03-06T14:09:10.684Z,14.19
2018-03-06T14:11:38.819Z,14.22
2018-03-06T14:14:06.936Z,13.94
2018-03-06T14:16:35.078Z,13.89
2018-03-06T14:19:03.198Z,13.96
2018-03-06T14:21:31.305Z,13.77
2018-03-06T14:23:59.428Z,13.91
2018-03-06T14:26:27.532Z,13.95
2018-03-06T14:28:55.670Z,14.21
2018-03-06T14:31:23.801Z,13.98
2018-03-06T14:33:51.983Z,13.98
2018-03-06T14:36:20.148Z,14.05
2018-03-06T14:38:48.269Z,14.02
2018-03-06T14:41:16.376Z,14.05
2018-03-06T14:43:44.507Z,13.77
2018-03-06T14:46:12.629Z,13.73
2018-03-06T14:48:40.757Z,13.59
2018-03-06T14:51:09.009Z,13.80
2018-03-06T14:53:37.079Z,13.89
2018-03-06T14:56:05.193Z,14.05
2018-03-06T14:58:37.003Z,13.99
2018-03-06T15:01:05.144Z,13.95
2018-03-06T15:03:33.261Z,14.01
2018-03-06T15:06:04.410Z,13.82
2018-03-06T15:08:32.564Z,13.83
2018-03-06T15:11:00.692Z,13.91
2018-03-06T15:13:28.807Z,13.94
2018-03-06T15:15:56.940Z,14.03
2018-03-06T15:18:25.074Z,13.89
2018-03-06T15:20:53.698Z,13.60
2018-03-06T15:23:21.816Z,13.82
2018-03-06T15:25:49.946Z,13.92
2018-03-06T15:28:18.063Z,13.66
2018-03-06T15:30:46.197Z,13.67
2018-03-06T15:33:14.313Z,13.73
2018-03-06T15:35:42.430Z,13.76
2018-03-06T15:38:10.599Z,13.77
2018-03-06T15:40:38.735Z,13.44
2018-03-06T15:43:06.891Z,13.64
2018-03-06T15:45:35.029Z,13.79
2018-03-06T15:48:03.160Z,13.69
2018-03-06T15:50:31.332Z,13.73
2018-03-06T15:52:59.488Z,13.75
2018-03-06T15:55:27.642Z,13.67
2018-03-06T15:57:55.837Z,13.64
2018-03-06T16:00:23.940Z,13.65
2018-03-06T16:02:52.108Z,13.47
2018-03-06T16:05:20.253Z,13.28
2018-03-06T16:07:48.403Z,13.32
2018-03-06T16:10:16.539Z,13.36
2018-03-06T16:12:44.696Z,13.39
2018-03-06T16:15:12.832Z,13.29
2018-03-06T16:17:41.002Z,13.11
2018-03-06T16:20:09.149Z,13.16
2018-03-06T16:22:37.293Z,13.09
2018-03-06T16:25:05.438Z,12.99
2018-03-06T16:27:33.630Z,12.87
2018-03-06T16:30:01.730Z,13.05
2018-03-06T16:32:29.862Z,12.76
2018-03-06T16:34:58.010Z,12.79
2018-03-06T16:37:26.182Z,12.87
2018-03-06T16:39:54.363Z,12.81
2018-03-06T16:42:22.534Z,12.84
2018-03-06T16:44:50.683Z,12.75
2018-03-06T16:47:18.821Z,12.73
2018-03-06T16:49:46.967Z,12.58
2018-03-06T16:52:15.129Z,12.65
2018-03-06T16:54:43.289Z,12.58
2018-03-06T16:57:11.426Z,12.59
2018-03-06T16:59:39.580Z,12.53
2018-03-06T17:02:07.713Z,12.52
2018-03-06T17:04:35.902Z,12.46
2018-03-06T17:07:04.294Z,12.52
2018-03-06T17:09:32.462Z,12.39
2018-03-06T17:12:00.601Z,12.31
2018-03-06T17:14:32.282Z,12.39
2018-03-06T17:17:00.567Z,12.36
2018-03-06T17:19:28.836Z,12.32
2018-03-06T17:21:56.958Z,12.33
2018-03-06T17:24:25.115Z,12.31
2018-03-06T17:26:53.264Z,12.25
2018-03-06T17:29:25.042Z,12.22
2018-03-06T17:31:53.196Z,12.14
2018-03-06T17:34:21.341Z,12.16
2018-03-06T17:36:49.479Z,12.14
2018-03-06T17:39:19.536Z,12.14
2018-03-06T17:41:47.759Z,12.03
2018-03-06T17:44:15.995Z,11.95
2018-03-06T17:46:44.131Z,12.64
2018-03-06T17:49:12.290Z,12.04
2018-03-06T17:51:40.437Z,11.98
2018-03-06T17:54:08.612Z,11.97
2018-03-06T17:56:36.741Z,11.80
2018-03-06T17:59:04.884Z,11.68
2018-03-06T18:01:33.324Z,11.65
2018-03-06T18:04:01.478Z,11.55
2018-03-06T18:06:29.639Z,11.66
2018-03-06T18:08:57.778Z,11.82
2018-03-06T18:11:25.917Z,11.76
2018-03-06T18:13:54.067Z,11.81
2018-03-06T18:16:22.279Z,11.81
2018-03-06T18:18:50.429Z,11.72
2018-03-06T18:21:18.573Z,11.77
2018-03-06T18:23:46.726Z,11.78
2018-03-06T18:26:15.786Z,11.69
2018-03-06T18:28:43.937Z,11.74
2018-03-06T18:31:12.080Z,11.78
2018-03-06T18:33:40.211Z,11.82
2018-03-06T18:36:08.386Z,11.79
2018-03-06T18:38:36.567Z,11.71
2018-03-06T18:41:04.705Z,11.68
2018-03-06T18:43:32.857Z,11.67
2018-03-06T18:46:01.931Z,11.66
2018-03-06T18:48:30.075Z,11.68
2018-03-06T18:51:08.991Z,11.67
2018-03-06T18:53:37.140Z,11.68
2018-03-06T18:56:05.284Z,11.66
2018-03-06T18:58:33.435Z,11.65
2018-03-06T19:01:13.310Z,11.58
2018-03-06T19:03:53.264Z,11.53
2018-03-06T19:06:24.500Z,11.47
2018-03-06T19:08:52.675Z,11.51
2018-03-06T19:11:20.865Z,11.52
2018-03-06T19:13:49.004Z,11.51
2018-03-06T19:16:17.164Z,11.48
2018-03-06T19:18:45.325Z,11.45
2018-03-06T19:21:13.478Z,11.41
2018-03-06T19:23:41.620Z,11.40
2018-03-06T19:26:09.763Z,11.36
2018-03-06T19:28:37.905Z,11.28
2018-03-06T19:31:06.049Z,11.31
2018-03-06T19:33:34.183Z,11.31
2018-03-06T19:36:02.315Z,11.30
2018-03-06T19:38:30.439Z,11.24
2018-03-06T19:40:58.534Z,11.25
2018-03-06T19:43:26.669Z,11.25
2018-03-06T19:45:54.807Z,11.21
2018-03-06T19:48:22.912Z,11.12
2018-03-06T19:50:51.044Z,11.16
2018-03-06T19:53:19.167Z,11.17
2018-03-06T19:55:47.284Z,11.17
2018-03-06T19:58:15.417Z,11.13
2018-03-06T20:00:43.519Z,11.13
2018-03-06T20:03:11.659Z,11.06
2018-03-06T20:05:39.775Z,11.02
2018-03-06T20:08:07.885Z,10.99
2018-03-06T20:10:36.020Z,10.94
2018-03-06T20:13:04.128Z,10.96
2018-03-06T20:15:32.241Z,10.89
2018-03-06T20:18:00.351Z,10.85
2018-03-06T20:20:28.471Z,10.88
2018-03-06T20:22:56.625Z,10.81
2018-03-06T20:25:30.309Z,10.82
2018-03-06T20:27:58.486Z,10.79
2018-03-06T20:30:32.223Z,10.76
2018-03-06T20:33:05.889Z,10.76
2018-03-06T20:35:34.012Z,10.78
2018-03-06T20:38:02.116Z,10.71
2018-03-06T20:40:35.251Z,10.74
2018-03-06T20:43:03.351Z,10.74
2018-03-06T20:45:37.120Z,10.83
2018-03-06T20:48:05.244Z,10.80
2018-03-06T20:50:33.358Z,10.77
2018-03-06T20:56:09.595Z,10.73
2018-03-06T20:58:37.849Z,10.73
2018-03-06T21:01:05.945Z,10.73
2018-03-06T21:03:34.061Z,10.71
2018-03-06T21:06:02.193Z,10.67
2018-03-06T21:08:30.303Z,10.64
2018-03-06T21:10:58.427Z,10.63
2018-03-06T21:13:26.591Z,10.63
2018-03-06T21:15:56.612Z,10.63
2018-03-06T21:18:24.745Z,10.67
2018-03-06T21:20:53.399Z,10.61
2018-03-06T21:23:21.518Z,10.62
2018-03-06T21:25:49.636Z,10.64
2018-03-06T21:28:17.771Z,10.62
2018-03-06T21:30:45.870Z,10.59
2018-03-06T21:33:14.006Z,10.58
2018-03-06T21:35:42.107Z,10.55
2018-03-06T21:38:10.241Z,10.49
2018-03-06T21:40:38.386Z,10.41
2018-03-06T21:43:06.465Z,10.37
2018-03-06T21:45:34.586Z,10.39
2018-03-06T21:48:02.707Z,10.37
2018-03-06T21:50:30.906Z,10.38
2018-03-06T21:52:59.033Z,10.38
2018-03-06T21:55:27.284Z,10.30
2018-03-06T21:57:59.179Z,10.36
2018-03-06T22:00:27.291Z,10.33
2018-03-06T22:02:55.413Z,10.25
2018-03-06T22:05:23.519Z,10.23
2018-03-06T22:07:51.658Z,10.21
2018-03-06T22:10:19.787Z,10.21
2018-03-06T22:12:47.901Z,10.19
2018-03-06T22:15:16.022Z,10.19
2018-03-06T22:17:44.153Z,10.18
2018-03-06T22:20:12.268Z,10.15
2018-03-06T22:22:40.383Z,10.09
2018-03-06T22:25:08.503Z,10.07
2018-03-06T22:27:36.619Z,10.05
2018-03-06T22:30:04.804Z,10.05
2018-03-06T22:32:32.991Z,9.99
2018-03-06T22:35:01.117Z,9.96
2018-03-06T22:37:29.216Z,9.96
2018-03-06T22:39:57.346Z,9.99
2018-03-06T22:42:25.445Z,9.96
2018-03-06T22:44:53.548Z,9.92
2018-03-06T22:47:21.684Z,9.97
2018-03-06T22:49:49.790Z,9.90
2018-03-06T22:52:17.893Z,9.82
2018-03-06T22:54:46.027Z,9.78
2018-03-06T22:57:14.127Z,9.73
2018-03-06T22:59:42.237Z,9.71
2018-03-06T23:02:10.348Z,9.69
2018-03-06T23:04:38.481Z,9.67
2018-03-06T23:07:06.603Z,9.63
2018-03-06T23:09:34.705Z,9.56
2018-03-06T23:12:02.829Z,9.52
2018-03-06T23:14:30.941Z,9.36
2018-03-06T23:16:59.044Z,9.32
2018-03-06T23:19:27.160Z,9.29
2018-03-06T23:21:55.270Z,9.22
2018-03-06T23:24:23.403Z,9.17
2018-03-06T23:26:51.519Z,9.14
2018-03-06T23:29:19.658Z,9.14
2018-03-06T23:31:47.761Z,9.13
2018-03-06T23:34:15.877Z,9.07
2018-03-06T23:36:47.517Z,9.03
2018-03-06T23:39:15.620Z,8.99
2018-03-06T23:41:44.005Z,8.87
2018-03-06T23:44:12.137Z,8.86
2018-03-06T23:46:40.258Z,8.82
2018-03-06T23:49:08.354Z,8.84
2018-03-06T23:51:36.463Z,8.81
2018-03-06T23:54:04.586Z,8.76
2018-03-06T23:56:32.698Z,8.75
2018-03-06T23:59:00.799Z,8.68
